Time;durP1;ratioP1;P1;durP2;ratioP2;P2;SDS_P1;SDS_P2;PMS_P1;PMS_P2;Temp;Humidity;BMP_temperature;BMP_pressure;BME280_temperature;BME280_humidity;BME280_pressure;Samples;Min_cycle;Max_cycle;Signal;HPM_P1;HPM_P2
2021/08/08 00:02:13;;;;;;;;;;;;;;;16.35;64.07;99584.09;5013828;28;818;-60
2021/08/08 00:04:39;;;;;;;;;;;;;;;16.39;63.83;99595.16;5013675;28;818;-60
2021/08/08 00:07:05;;;;;;;;;;;;;;;16.32;63.67;99585.00;5012746;28;1324;-60
2021/08/08 00:09:32;;;;;;;;;;;;;;;16.22;63.42;99581.31;5013553;28;854;-60
2021/08/08 00:11:59;;;;;;;;;;;;;;;16.06;63.77;99579.41;5014069;28;775;-60
2021/08/08 00:14:26;;;;;;;;;;;;;;;15.87;64.00;99585.97;5013799;28;864;-60
2021/08/08 00:16:52;;;;;;;;;;;;;;;15.74;64.52;99583.19;5013503;28;1284;-60
2021/08/08 00:19:19;;;;;;;;;;;;;;;15.67;64.63;99586.16;5013221;28;1975;-60
2021/08/08 00:21:45;;;;;;;;;;;;;;;15.74;64.61;99580.38;5011946;28;1364;-60
2021/08/08 00:24:12;;;;;;;;;;;;;;;15.80;64.26;99572.28;5011920;28;855;-60
2021/08/08 00:26:39;;;;;;;;;;;;;;;15.75;64.67;99565.25;5012455;28;870;-60
2021/08/08 00:29:05;;;;;;;;;;;;;;;15.68;64.67;99570.97;5011847;28;1386;-60
2021/08/08 00:31:32;;;;;;;;;;;;;;;15.78;64.43;99571.94;5012978;28;799;-60
2021/08/08 00:33:58;;;;;;;;;;;;;;;16.11;63.32;99569.75;5013125;28;874;-60
2021/08/08 00:36:24;;;;;;;;;;;;;;;16.49;61.98;99575.28;5012953;28;818;-60
2021/08/08 00:38:51;;;;;;;;;;;;;;;16.82;60.58;99569.44;5012797;28;1941;-60
2021/08/08 00:41:18;;;;;;;;;;;;;;;17.19;59.42;99563.38;5012860;28;1025;-60
2021/08/08 00:43:45;;;;;;;;;;;;;;;17.54;57.93;99575.28;5012884;28;869;-60
2021/08/08 00:46:12;;;;;;;;;;;;;;;17.61;57.74;99568.63;5012793;28;846;-60
2021/08/08 00:48:38;;;;;;;;;;;;;;;17.25;58.71;99570.72;5011424;28;1296;-59
2021/08/08 00:51:05;;;;;;;;;;;;;;;16.81;60.24;99570.66;5012776;28;823;-60
2021/08/08 00:53:32;;;;;;;;;;;;;;;16.52;61.23;99571.59;5012611;28;854;-60
2021/08/08 00:55:59;;;;;;;;;;;;;;;16.44;61.98;99570.25;5012874;28;894;-60
2021/08/08 00:58:28;;;;;;;;;;;;;;;16.37;62.54;99570.50;5012509;28;1886;-60
2021/08/08 01:01:00;;;;;;;;;;;;;;;16.28;62.81;99576.75;5012517;28;802;-60
2021/08/08 01:03:26;;;;;;;;;;;;;;;16.15;63.37;99583.53;5012999;28;830;-60
2021/08/08 01:06:14;;;;;;;;;;;;;;;16.03;63.74;99585.13;5013144;28;744;-60
2021/08/08 01:08:51;;;;;;;;;;;;;;;16.00;63.80;99586.78;5002083;28;1226;-60
2021/08/08 01:11:18;;;;;;;;;;;;;;;16.10;63.43;99585.66;5012453;28;846;-60
2021/08/08 01:13:46;;;;;;;;;;;;;;;16.22;63.91;99591.72;5012303;28;999;-60
2021/08/08 01:16:13;;;;;;;;;;;;;;;16.22;64.26;99598.06;5012071;28;1190;-61
2021/08/08 01:18:39;;;;;;;;;;;;;;;16.15;64.78;99603.06;5012198;28;1973;-61
2021/08/08 01:21:05;;;;;;;;;;;;;;;16.08;65.34;99601.28;5012201;28;835;-60
2021/08/08 01:23:33;;;;;;;;;;;;;;;16.00;65.53;99603.53;5012353;28;911;-61
2021/08/08 01:26:00;;;;;;;;;;;;;;;15.96;65.96;99610.41;5012255;28;898;-60
2021/08/08 01:28:27;;;;;;;;;;;;;;;15.93;66.09;99612.84;5012041;28;886;-60
2021/08/08 01:30:54;;;;;;;;;;;;;;;15.99;65.90;99613.09;5012072;28;799;-60
2021/08/08 01:33:20;;;;;;;;;;;;;;;15.99;65.58;99615.88;5012084;28;851;-60
2021/08/08 01:35:48;;;;;;;;;;;;;;;16.00;65.61;99606.31;5012032;28;932;-60
2021/08/08 01:38:15;;;;;;;;;;;;;;;16.02;65.23;99606.63;5011356;28;1886;-60
2021/08/08 01:40:51;;;;;;;;;;;;;;;16.03;65.12;99607.41;5012005;28;870;-60
2021/08/08 01:43:22;;;;;;;;;;;;;;;15.95;65.12;99606.84;5011891;28;835;-60
2021/08/08 01:45:49;;;;;;;;;;;;;;;15.90;65.36;99599.81;5010834;28;1180;-60
2021/08/08 01:48:17;;;;;;;;;;;;;;;15.95;65.13;99603.28;5011992;28;819;-60
2021/08/08 01:50:44;;;;;;;;;;;;;;;16.00;64.67;99605.50;5011840;28;803;-60
2021/08/08 01:53:11;;;;;;;;;;;;;;;15.91;64.45;99609.72;5011863;28;818;-60
2021/08/08 01:55:38;;;;;;;;;;;;;;;15.77;65.01;99617.72;5011762;28;853;-59
2021/08/08 01:58:05;;;;;;;;;;;;;;;15.61;65.25;99618.56;5011867;28;1942;-60
2021/08/08 02:00:33;;;;;;;;;;;;;;;15.45;65.78;99617.41;5011761;28;846;-60
2021/08/08 02:02:59;;;;;;;;;;;;;;;15.32;66.86;99613.81;5012040;28;905;-60
2021/08/08 02:05:28;;;;;;;;;;;;;;;15.23;67.19;99627.56;5011792;28;862;-60
2021/08/08 02:07:55;;;;;;;;;;;;;;;15.14;67.74;99630.19;5011734;28;810;-60
2021/08/08 02:10:21;;;;;;;;;;;;;;;15.04;67.69;99626.44;5011746;28;837;-61
2021/08/08 02:12:48;;;;;;;;;;;;;;;14.93;68.23;99631.53;5011659;28;874;-61
2021/08/08 02:15:14;;;;;;;;;;;;;;;14.89;68.26;99626.84;5011947;28;936;-61
2021/08/08 02:17:41;;;;;;;;;;;;;;;14.88;68.31;99627.25;5011383;28;1409;-61
2021/08/08 02:20:10;;;;;;;;;;;;;;;14.90;68.43;99628.38;5011568;28;1985;-62
2021/08/08 02:22:38;;;;;;;;;;;;;;;15.00;68.44;99623.78;5011439;28;1164;-61
2021/08/08 02:25:05;;;;;;;;;;;;;;;15.05;68.02;99628.03;5011667;28;822;-61
2021/08/08 02:27:32;;;;;;;;;;;;;;;15.11;67.92;99637.41;5010216;28;1156;-61
2021/08/08 02:29:58;;;;;;;;;;;;;;;15.18;67.61;99636.44;5011817;28;854;-61
2021/08/08 02:32:25;;;;;;;;;;;;;;;15.28;67.52;99635.38;5011474;28;827;-62
2021/08/08 02:34:52;;;;;;;;;;;;;;;15.35;67.15;99631.63;5011499;28;878;-61
2021/08/08 02:37:20;;;;;;;;;;;;;;;15.36;67.07;99639.53;5011559;28;810;-61
2021/08/08 02:39:46;;;;;;;;;;;;;;;15.40;66.87;99645.00;5011323;28;1902;-61
2021/08/08 02:42:12;;;;;;;;;;;;;;;15.45;67.30;99645.25;5011398;28;877;-62
2021/08/08 02:44:38;;;;;;;;;;;;;;;15.51;67.53;99651.06;5011437;28;1018;-62
2021/08/08 02:47:05;;;;;;;;;;;;;;;15.50;67.86;99661.41;5011342;28;866;-62
2021/08/08 02:49:32;;;;;;;;;;;;;;;15.51;68.00;99651.06;5012847;28;839;-61
2021/08/08 02:51:58;;;;;;;;;;;;;;;15.53;68.12;99656.97;5014945;28;842;-62
2021/08/08 02:54:25;;;;;;;;;;;;;;;15.52;67.96;99672.91;5014963;28;838;-61
2021/08/08 02:56:51;;;;;;;;;;;;;;;15.48;67.91;99674.22;5015143;28;838;-62
2021/08/08 02:59:18;;;;;;;;;;;;;;;15.38;68.23;99673.28;5015043;28;1882;-62
2021/08/08 03:01:45;;;;;;;;;;;;;;;15.31;68.14;99679.03;5015507;28;775;-61
2021/08/08 03:04:12;;;;;;;;;;;;;;;15.22;68.59;99679.66;5014886;28;882;-61
2021/08/08 03:06:43;;;;;;;;;;;;;;;15.10;68.70;99681.16;5015332;28;787;-61
2021/08/08 03:09:09;;;;;;;;;;;;;;;14.97;68.95;99685.88;5014913;28;881;-60
2021/08/08 03:11:36;;;;;;;;;;;;;;;14.88;69.42;99685.69;5014661;28;838;-61
2021/08/08 03:14:02;;;;;;;;;;;;;;;14.79;69.85;99689.09;5014550;28;1010;-61
2021/08/08 03:16:29;;;;;;;;;;;;;;;14.82;70.03;99685.44;5014375;28;1208;-61
2021/08/08 03:18:56;;;;;;;;;;;;;;;14.85;70.11;99690.13;5014440;28;1973;-61
2021/08/08 03:21:23;;;;;;;;;;;;;;;14.90;70.04;99699.97;5014423;28;854;-61
2021/08/08 03:23:49;;;;;;;;;;;;;;;14.94;69.93;99703.44;5014683;28;862;-60
2021/08/08 03:26:16;;;;;;;;;;;;;;;14.97;69.77;99710.13;5014489;28;866;-61
2021/08/08 03:28:42;;;;;;;;;;;;;;;14.98;69.89;99708.91;5014469;28;890;-61
2021/08/08 03:31:10;;;;;;;;;;;;;;;15.02;70.04;99713.19;5014547;28;795;-61
2021/08/08 03:33:37;;;;;;;;;;;;;;;15.01;69.99;99705.25;5014558;28;874;-61
2021/08/08 03:36:03;;;;;;;;;;;;;;;15.15;69.92;99716.06;5014335;28;885;-61
2021/08/08 03:38:30;;;;;;;;;;;;;;;15.17;70.05;99721.16;5014410;28;1951;-61
2021/08/08 03:40:57;;;;;;;;;;;;;;;15.14;69.83;99725.59;5014343;28;814;-60
2021/08/08 03:43:24;;;;;;;;;;;;;;;15.08;70.01;99728.16;5014554;28;838;-61
2021/08/08 03:45:49;;;;;;;;;;;;;;;15.05;69.71;99729.00;5014900;28;854;-61
2021/08/08 03:48:16;;;;;;;;;;;;;;;15.06;69.49;99727.81;5013920;28;843;-61
2021/08/08 03:50:43;;;;;;;;;;;;;;;15.11;69.28;99723.72;5013782;28;815;-61
2021/08/08 03:53:09;;;;;;;;;;;;;;;15.21;68.90;99719.06;5013782;28;1083;-61
2021/08/08 03:55:36;;;;;;;;;;;;;;;15.31;68.36;99729.94;5013811;28;870;-61
2021/08/08 03:58:03;;;;;;;;;;;;;;;15.44;68.06;99732.03;5013726;28;881;-61
2021/08/08 04:00:30;;;;;;;;;;;;;;;15.50;67.75;99733.84;5012825;28;1886;-60
2021/08/08 04:02:56;;;;;;;;;;;;;;;15.54;67.91;99730.19;5013483;28;854;-60
2021/08/08 04:05:23;;;;;;;;;;;;;;;15.61;67.77;99736.34;5013645;28;806;-61
2021/08/08 04:07:50;;;;;;;;;;;;;;;15.78;67.54;99741.91;5013531;28;894;-60
2021/08/08 04:10:16;;;;;;;;;;;;;;;16.00;66.80;99736.50;5013514;28;810;-61
2021/08/08 04:12:43;;;;;;;;;;;;;;;16.21;66.28;99732.34;5013377;28;929;-60
2021/08/08 04:15:09;;;;;;;;;;;;;;;16.42;65.74;99728.13;5013681;28;1089;-61
2021/08/08 04:17:35;;;;;;;;;;;;;;;16.64;65.09;99733.84;5013143;28;1265;-61
2021/08/08 04:20:02;;;;;;;;;;;;;;;16.84;64.67;99730.88;5013322;28;1983;-61
2021/08/08 04:22:29;;;;;;;;;;;;;;;16.97;64.06;99728.84;5013257;28;901;-61
2021/08/08 04:24:55;;;;;;;;;;;;;;;17.08;63.89;99737.66;5013208;28;823;-61
2021/08/08 04:27:22;;;;;;;;;;;;;;;17.23;63.43;99737.19;5013140;28;910;-61
2021/08/08 04:29:49;;;;;;;;;;;;;;;17.40;62.77;99737.81;5013193;28;904;-61
2021/08/08 04:32:18;;;;;;;;;;;;;;;17.55;62.11;99736.88;5013027;28;874;-61
2021/08/08 04:34:44;;;;;;;;;;;;;;;17.73;61.65;99741.03;5012997;28;938;-61
2021/08/08 04:37:11;;;;;;;;;;;;;;;17.91;60.87;99746.06;5013039;28;827;-61
2021/08/08 04:39:37;;;;;;;;;;;;;;;18.11;60.54;99740.13;5013050;28;1977;-61
2021/08/08 04:42:05;;;;;;;;;;;;;;;18.32;59.91;99738.56;5012951;28;842;-61
2021/08/08 04:44:32;;;;;;;;;;;;;;;18.53;59.41;99737.72;5012816;28;791;-60
2021/08/08 04:46:59;;;;;;;;;;;;;;;18.74;58.84;99735.34;5011566;28;873;-61
2021/08/08 04:49:25;;;;;;;;;;;;;;;18.90;58.31;99743.50;5012724;28;878;-61
2021/08/08 04:51:52;;;;;;;;;;;;;;;19.07;57.90;99748.88;5012728;28;858;-61
2021/08/08 04:54:19;;;;;;;;;;;;;;;19.24;57.52;99752.19;5012721;28;823;-61
2021/08/08 04:56:45;;;;;;;;;;;;;;;19.41;57.18;99747.84;5012635;28;823;-61
2021/08/08 04:59:11;;;;;;;;;;;;;;;19.61;56.67;99758.63;5012480;28;1887;-61
2021/08/08 05:01:39;;;;;;;;;;;;;;;19.81;56.39;99758.19;5012615;28;874;-61
2021/08/08 05:04:06;;;;;;;;;;;;;;;19.99;55.96;99757.41;5012465;28;934;-60
2021/08/08 05:06:33;;;;;;;;;;;;;;;20.16;55.28;99761.47;5012707;28;847;-61
2021/08/08 05:14:29;;;;;;;;;;;;;;;20.92;53.71;99755.94;6019734;23;1691;-61
2021/08/08 05:16:58;;;;;;;;;;;;;;;21.63;51.64;99756.47;5012368;28;861;-61
2021/08/08 05:19:23;;;;;;;;;;;;;;;22.54;49.89;99759.75;5012896;28;1989;-61
2021/08/08 05:21:50;;;;;;;;;;;;;;;23.70;47.75;99756.78;5012247;28;861;-61
2021/08/08 05:24:19;;;;;;;;;;;;;;;24.62;46.05;99760.84;5012389;28;881;-61
2021/08/08 05:26:46;;;;;;;;;;;;;;;25.35;44.43;99764.22;5012735;28;779;-61
2021/08/08 05:29:13;;;;;;;;;;;;;;;26.21;42.98;99766.09;5012490;28;791;-61
2021/08/08 05:31:42;;;;;;;;;;;;;;;26.73;41.45;99759.94;5012059;28;834;-61
2021/08/08 05:34:08;;;;;;;;;;;;;;;26.99;40.49;99762.50;5012325;28;818;-61
2021/08/08 05:36:35;;;;;;;;;;;;;;;27.30;39.88;99766.34;5012382;28;841;-61
2021/08/08 05:39:02;;;;;;;;;;;;;;;27.58;39.46;99765.47;5012148;28;1890;-61
2021/08/08 05:41:29;;;;;;;;;;;;;;;27.75;39.32;99760.47;5012472;28;893;-61
2021/08/08 05:43:55;;;;;;;;;;;;;;;27.94;38.82;99755.00;5012178;28;881;-60
2021/08/08 05:46:22;;;;;;;;;;;;;;;28.23;38.28;99767.75;5012321;28;846;-60
2021/08/08 05:48:49;;;;;;;;;;;;;;;28.61;36.92;99767.97;5011993;28;826;-60
2021/08/08 05:51:15;;;;;;;;;;;;;;;29.69;34.94;99762.78;5012361;28;763;-61
2021/08/08 05:53:42;;;;;;;;;;;;;;;31.08;32.14;99762.47;5012088;28;874;-61
2021/08/08 05:56:08;;;;;;;;;;;;;;;32.01;30.69;99765.31;5012123;28;815;-61
2021/08/08 05:58:35;;;;;;;;;;;;;;;32.63;29.59;99768.81;5011726;28;1894;-61
2021/08/08 06:01:01;;;;;;;;;;;;;;;33.04;28.80;99775.81;5011704;28;889;-61
2021/08/08 06:03:27;;;;;;;;;;;;;;;33.38;28.53;99769.22;5011791;28;885;-61
2021/08/08 06:05:54;;;;;;;;;;;;;;;33.96;27.58;99770.63;5011755;28;842;-61
2021/08/08 06:08:24;;;;;;;;;;;;;;;34.24;27.14;99766.91;5011671;28;831;-61
2021/08/08 06:10:51;;;;;;;;;;;;;;;34.91;26.25;99768.91;5011990;28;814;-61
2021/08/08 06:13:17;;;;;;;;;;;;;;;35.28;25.05;99763.72;5011627;28;1025;-61
2021/08/08 06:15:44;;;;;;;;;;;;;;;35.36;24.83;99759.50;5011511;28;1360;-61
2021/08/08 06:18:10;;;;;;;;;;;;;;;35.13;24.54;99762.41;5011582;28;882;-61
2021/08/08 06:20:37;;;;;;;;;;;;;;;35.08;24.21;99759.69;5011532;28;2036;-61
2021/08/08 06:23:03;;;;;;;;;;;;;;;35.52;23.36;99754.44;5010296;28;926;-61
2021/08/08 06:25:30;;;;;;;;;;;;;;;35.79;23.44;99759.75;5014662;28;854;-61
2021/08/08 06:27:57;;;;;;;;;;;;;;;36.14;22.75;99757.09;5015452;28;826;-61
2021/08/08 06:30:23;;;;;;;;;;;;;;;36.61;22.06;99758.31;5015376;28;811;-61
2021/08/08 06:32:50;;;;;;;;;;;;;;;36.61;21.10;99764.09;5015353;28;826;-60
2021/08/08 06:35:16;;;;;;;;;;;;;;;36.53;21.35;99755.50;5014139;28;873;-61
2021/08/08 06:37:46;;;;;;;;;;;;;;;36.56;21.93;99762.19;5015278;28;858;-61
2021/08/08 06:40:12;;;;;;;;;;;;;;;37.02;21.40;99761.81;5015205;28;1886;-61
2021/08/08 06:42:38;;;;;;;;;;;;;;;37.30;21.04;99762.69;5015090;28;858;-61
2021/08/08 06:45:05;;;;;;;;;;;;;;;37.49;21.14;99759.22;5015008;28;926;-61
2021/08/08 06:47:32;;;;;;;;;;;;;;;36.98;21.08;99758.59;5015091;28;893;-61
2021/08/08 06:50:00;;;;;;;;;;;;;;;36.59;21.25;99761.00;5015003;28;826;-61
2021/08/08 06:52:27;;;;;;;;;;;;;;;36.37;20.90;99762.72;5014978;28;886;-61
2021/08/08 06:54:54;;;;;;;;;;;;;;;36.35;20.95;99768.28;5014995;28;874;-61
2021/08/08 06:57:24;;;;;;;;;;;;;;;36.53;20.64;99775.66;5014895;28;811;-61
2021/08/08 06:59:50;;;;;;;;;;;;;;;36.63;20.84;99772.13;5014927;28;1878;-61
2021/08/08 07:02:18;;;;;;;;;;;;;;;37.02;21.81;99778.31;5015121;28;878;-61
2021/08/08 07:04:44;;;;;;;;;;;;;;;37.17;20.33;99778.19;5014792;28;839;-61
2021/08/08 07:07:10;;;;;;;;;;;;;;;37.36;20.16;99774.75;5014648;28;875;-61
2021/08/08 07:09:37;;;;;;;;;;;;;;;37.27;19.95;99769.66;5014761;28;995;-61
2021/08/08 07:12:04;;;;;;;;;;;;;;;37.37;20.06;99779.91;5014723;28;865;-61
2021/08/08 07:14:33;;;;;;;;;;;;;;;37.30;20.73;99769.25;5014725;28;907;-61
2021/08/08 07:17:00;;;;;;;;;;;;;;;37.23;20.35;99778.72;5014513;28;1231;-62
2021/08/08 07:19:27;;;;;;;;;;;;;;;36.85;20.61;99782.72;5014433;28;1910;-61
2021/08/08 07:21:54;;;;;;;;;;;;;;;36.94;20.84;99776.28;5014445;28;866;-61
2021/08/08 07:24:21;;;;;;;;;;;;;;;37.24;20.18;99777.38;5014560;28;846;-61
2021/08/08 07:26:48;;;;;;;;;;;;;;;37.34;19.84;99778.25;5014609;28;854;-61
2021/08/08 07:29:15;;;;;;;;;;;;;;;37.01;19.76;99776.81;5014573;28;870;-60
2021/08/08 07:31:41;;;;;;;;;;;;;;;37.65;19.65;99786.56;5014286;28;964;-61
2021/08/08 07:34:07;;;;;;;;;;;;;;;38.06;19.51;99783.38;5014292;28;901;-62
2021/08/08 07:36:34;;;;;;;;;;;;;;;38.07;19.38;99779.13;5014126;28;1049;-61
2021/08/08 07:39:00;;;;;;;;;;;;;;;38.47;19.08;99778.72;5014286;28;1890;-62
2021/08/08 07:41:27;;;;;;;;;;;;;;;38.38;18.94;99780.19;5014079;28;811;-62
2021/08/08 07:43:54;;;;;;;;;;;;;;;38.60;19.12;99786.25;5013945;28;814;-62
2021/08/08 07:46:21;;;;;;;;;;;;;;;38.96;18.48;99782.63;5013937;28;878;-62
2021/08/08 07:48:48;;;;;;;;;;;;;;;38.94;18.34;99775.88;5012661;28;1192;-62
2021/08/08 07:51:15;;;;;;;;;;;;;;;38.76;18.26;99775.97;5013780;28;1154;-61
2021/08/08 07:53:41;;;;;;;;;;;;;;;38.53;18.45;99766.94;5014122;28;974;-62
2021/08/08 07:56:07;;;;;;;;;;;;;;;38.20;18.62;99773.00;5014055;28;810;-62
2021/08/08 07:58:34;;;;;;;;;;;;;;;38.22;18.74;99763.72;5013722;28;1965;-61
2021/08/08 08:01:01;;;;;;;;;;;;;;;38.11;18.62;99762.13;5013672;28;916;-61
2021/08/08 08:03:28;;;;;;;;;;;;;;;37.73;18.75;99763.41;5012552;28;842;-62
2021/08/08 08:05:56;;;;;;;;;;;;;;;38.07;18.04;99756.03;5013602;28;863;-62
2021/08/08 08:08:23;;;;;;;;;;;;;;;38.19;18.21;99754.91;5013540;28;847;-61
2021/08/08 08:10:50;;;;;;;;;;;;;;;37.78;19.15;99759.47;5013481;28;858;-62
2021/08/08 08:13:17;;;;;;;;;;;;;;;38.00;19.20;99758.44;5013342;28;938;-61
2021/08/08 08:15:43;;;;;;;;;;;;;;;37.87;18.83;99753.00;5013320;28;1190;-62
2021/08/08 08:18:10;;;;;;;;;;;;;;;37.99;18.88;99759.00;5013374;28;882;-61
2021/08/08 08:20:37;;;;;;;;;;;;;;;38.40;18.91;99756.53;5013307;28;1955;-61
2021/08/08 08:23:04;;;;;;;;;;;;;;;38.83;18.00;99754.09;5013556;28;858;-62
2021/08/08 08:25:31;;;;;;;;;;;;;;;38.14;18.45;99755.94;5013293;28;866;-62
2021/08/08 08:27:58;;;;;;;;;;;;;;;37.88;18.81;99751.66;5013206;28;807;-62
2021/08/08 08:30:25;;;;;;;;;;;;;;;37.59;18.89;99743.56;5011829;28;1184;-61
2021/08/08 08:32:52;;;;;;;;;;;;;;;37.55;19.37;99748.19;5013113;28;917;-62
2021/08/08 08:35:19;;;;;;;;;;;;;;;37.82;19.82;99759.06;5013040;28;881;-62
2021/08/08 08:37:45;;;;;;;;;;;;;;;37.80;19.17;99756.78;5013041;28;830;-62
2021/08/08 08:40:12;;;;;;;;;;;;;;;37.70;19.52;99753.06;5012874;28;1944;-62
2021/08/08 08:42:49;;;;;;;;;;;;;;;38.39;18.75;99755.75;5012909;28;886;-62
2021/08/08 08:45:16;;;;;;;;;;;;;;;38.63;18.85;99749.66;5012915;28;819;-62
2021/08/08 08:47:43;;;;;;;;;;;;;;;38.70;18.40;99755.28;5012437;28;795;-62
2021/08/08 08:50:11;;;;;;;;;;;;;;;38.74;18.40;99763.50;5012849;28;808;-62
2021/08/08 08:52:38;;;;;;;;;;;;;;;37.91;18.97;99762.00;5012709;28;873;-61
2021/08/08 08:55:05;;;;;;;;;;;;;;;37.91;19.24;99762.00;5012900;28;799;-62
2021/08/08 08:57:32;;;;;;;;;;;;;;;38.10;19.38;99763.50;5012637;28;1025;-61
2021/08/08 08:59:59;;;;;;;;;;;;;;;37.90;19.37;99756.84;5012896;28;1882;-62
2021/08/08 09:02:26;;;;;;;;;;;;;;;37.84;19.68;99762.13;5012681;28;814;-61
2021/08/08 09:04:53;;;;;;;;;;;;;;;38.19;19.65;99763.53;5012601;28;857;-62
2021/08/08 09:07:20;;;;;;;;;;;;;;;38.34;18.94;99756.03;5012594;28;1016;-62
2021/08/08 09:09:45;;;;;;;;;;;;;;;38.38;18.70;99748.44;5012753;28;895;-62
2021/08/08 09:12:21;;;;;;;;;;;;;;;38.62;18.64;99745.97;5012414;28;838;-62
2021/08/08 09:14:55;;;;;;;;;;;;;;;38.74;18.44;99751.97;5010782;28;1090;-62
2021/08/08 09:17:23;;;;;;;;;;;;;;;38.53;18.80;99752.50;5012405;28;897;-62
2021/08/08 09:19:57;;;;;;;;;;;;;;;38.22;19.86;99750.06;5012274;28;1910;-62
2021/08/08 09:22:26;;;;;;;;;;;;;;;37.78;19.68;99736.41;5012293;28;881;-61
2021/08/08 09:24:54;;;;;;;;;;;;;;;37.46;19.52;99746.03;5012192;28;854;-61
2021/08/08 09:27:29;;;;;;;;;;;;;;;36.95;20.08;99740.38;5012227;28;802;-62
2021/08/08 09:29:56;;;;;;;;;;;;;;;36.79;20.15;99736.13;5012376;28;885;-62
2021/08/08 09:32:28;;;;;;;;;;;;;;;37.12;20.57;99718.72;5012169;28;834;-61
2021/08/08 09:35:03;;;;;;;;;;;;;;;36.95;20.44;99730.97;5012470;28;885;-62
2021/08/08 09:37:30;;;;;;;;;;;;;;;36.85;21.10;99724.34;5012123;28;802;-62
2021/08/08 09:39:57;;;;;;;;;;;;;;;36.85;20.60;99728.00;5011875;28;1906;-61
2021/08/08 09:42:25;;;;;;;;;;;;;;;36.46;20.46;99712.38;5011942;28;963;-62
2021/08/08 09:45:03;;;;;;;;;;;;;;;36.49;21.64;99711.97;5011898;28;930;-62
2021/08/08 09:47:38;;;;;;;;;;;;;;;36.44;21.11;99712.97;5011860;28;1026;-61
2021/08/08 09:50:06;;;;;;;;;;;;;;;36.05;21.44;99714.56;5011888;28;889;-61
2021/08/08 09:52:32;;;;;;;;;;;;;;;36.12;21.59;99705.13;5011938;28;866;-62
2021/08/08 09:54:59;;;;;;;;;;;;;;;36.16;21.57;99708.38;5011933;28;854;-62
2021/08/08 09:57:36;;;;;;;;;;;;;;;35.68;21.30;99708.44;5011752;28;783;-62
2021/08/08 10:00:03;;;;;;;;;;;;;;;34.92;22.73;99705.16;5009757;28;1977;-62
2021/08/08 10:02:29;;;;;;;;;;;;;;;34.64;24.11;99706.16;5012091;28;814;-62
2021/08/08 10:04:56;;;;;;;;;;;;;;;34.57;23.60;99701.19;5011709;28;819;-62
2021/08/08 10:07:25;;;;;;;;;;;;;;;34.56;24.14;99706.13;5011742;28;850;-61
2021/08/08 10:09:52;;;;;;;;;;;;;;;34.61;23.53;99713.03;5011735;28;827;-62
2021/08/08 10:12:37;;;;;;;;;;;;;;;34.76;24.07;99709.44;5010486;28;835;-61
2021/08/08 10:15:04;;;;;;;;;;;;;;;34.79;22.87;99705.38;5011547;28;1158;-62
2021/08/08 10:17:33;;;;;;;;;;;;;;;34.70;22.77;99703.88;5011683;28;873;-62
2021/08/08 10:20:01;;;;;;;;;;;;;;;34.61;22.96;99701.56;5011489;28;1969;-62
2021/08/08 10:22:28;;;;;;;;;;;;;;;34.46;23.25;99701.53;5011638;28;854;-62
2021/08/08 10:24:56;;;;;;;;;;;;;;;34.60;23.47;99700.00;5011723;28;916;-62
2021/08/08 10:27:26;;;;;;;;;;;;;;;34.87;22.83;99700.41;5011436;28;945;-62
2021/08/08 10:29:55;;;;;;;;;;;;;;;34.99;23.37;99692.13;5012060;28;823;-62
2021/08/08 10:32:24;;;;;;;;;;;;;;;35.02;23.05;99685.25;5011600;28;819;-62
2021/08/08 10:34:50;;;;;;;;;;;;;;;35.12;23.20;99691.16;5011492;28;823;-62
2021/08/08 10:37:20;;;;;;;;;;;;;;;35.07;22.87;99684.28;5011488;28;862;-62
2021/08/08 10:39:47;;;;;;;;;;;;;;;34.89;23.42;99691.97;5011278;28;1890;-61
2021/08/08 10:42:13;;;;;;;;;;;;;;;34.88;22.62;99684.69;5011395;28;1039;-63
2021/08/08 10:44:47;;;;;;;;;;;;;;;34.82;23.00;99683.38;5011487;28;819;-62
2021/08/08 10:47:30;;;;;;;;;;;;;;;35.08;23.63;99682.94;5011366;28;898;-62
2021/08/08 10:50:10;;;;;;;;;;;;;;;35.29;22.79;99670.44;5011378;28;814;-62
2021/08/08 10:52:40;;;;;;;;;;;;;;;35.29;21.83;99667.56;5011727;28;755;-62
2021/08/08 10:55:07;;;;;;;;;;;;;;;35.11;22.56;99670.28;5011343;28;822;-61
2021/08/08 10:57:44;;;;;;;;;;;;;;;35.25;22.67;99665.13;5010004;28;1298;-62
2021/08/08 11:00:14;;;;;;;;;;;;;;;35.58;22.21;99665.16;5011452;28;1962;-62
2021/08/08 11:02:44;;;;;;;;;;;;;;;35.86;22.51;99669.06;5011534;28;834;-62
2021/08/08 11:05:12;;;;;;;;;;;;;;;35.73;21.82;99667.22;5011195;28;893;-62
2021/08/08 11:07:39;;;;;;;;;;;;;;;35.68;21.38;99668.97;5011180;28;823;-62
2021/08/08 11:10:06;;;;;;;;;;;;;;;35.73;20.81;99662.22;5011767;28;815;-62
2021/08/08 11:12:35;;;;;;;;;;;;;;;35.61;21.21;99648.84;5014668;28;873;-62
2021/08/08 11:15:02;;;;;;;;;;;;;;;35.52;21.43;99653.88;5014872;28;1340;-62
2021/08/08 11:17:28;;;;;;;;;;;;;;;35.75;21.47;99653.78;5015661;28;790;-62
2021/08/08 11:19:55;;;;;;;;;;;;;;;35.30;21.17;99655.50;5014490;28;1979;-62
2021/08/08 11:22:22;;;;;;;;;;;;;;;34.88;20.94;99653.13;5014602;28;826;-63
2021/08/08 11:24:58;;;;;;;;;;;;;;;34.58;20.81;99648.94;5014353;28;831;-63
2021/08/08 11:27:35;;;;;;;;;;;;;;;34.70;20.06;99646.47;5014650;28;799;-62
2021/08/08 11:30:05;;;;;;;;;;;;;;;35.07;20.83;99664.19;5014373;28;823;-63
2021/08/08 11:32:33;;;;;;;;;;;;;;;35.04;20.19;99662.47;5014611;28;1061;-62
2021/08/08 11:35:08;;;;;;;;;;;;;;;35.01;19.28;99652.13;5014483;28;815;-63
2021/08/08 11:37:36;;;;;;;;;;;;;;;34.88;19.49;99658.84;5014176;28;799;-62
2021/08/08 11:40:14;;;;;;;;;;;;;;;35.17;21.90;99659.41;5014039;28;1893;-62
2021/08/08 11:42:41;;;;;;;;;;;;;;;35.19;24.03;99667.44;5014555;28;850;-63
2021/08/08 11:45:08;;;;;;;;;;;;;;;35.18;24.22;99663.78;5014203;28;906;-63
2021/08/08 11:47:34;;;;;;;;;;;;;;;35.02;24.18;99656.53;5014294;28;819;-63
2021/08/08 11:50:05;;;;;;;;;;;;;;;34.94;24.45;99658.66;5014557;28;809;-62
2021/08/08 11:52:32;;;;;;;;;;;;;;;35.07;24.17;99655.56;5013934;28;881;-63
2021/08/08 11:55:06;;;;;;;;;;;;;;;35.17;24.18;99647.16;5013858;28;775;-62
2021/08/08 11:57:34;;;;;;;;;;;;;;;35.57;23.21;99643.50;5013788;28;840;-62
2021/08/08 12:00:01;;;;;;;;;;;;;;;35.61;23.72;99645.97;5013716;28;1951;-62
2021/08/08 12:02:30;;;;;;;;;;;;;;;35.66;23.29;99642.16;5013744;28;889;-62
2021/08/08 12:04:57;;;;;;;;;;;;;;;35.95;22.65;99643.31;5013588;28;943;-62
2021/08/08 12:07:24;;;;;;;;;;;;;;;36.00;22.78;99641.56;5013723;28;893;-62
2021/08/08 12:09:52;;;;;;;;;;;;;;;35.99;23.23;99642.88;5013565;28;853;-63
2021/08/08 12:12:19;;;;;;;;;;;;;;;35.82;22.67;99639.94;5013530;28;865;-63
2021/08/08 12:14:47;;;;;;;;;;;;;;;35.77;22.92;99636.72;5013494;28;1156;-62
2021/08/08 12:17:15;;;;;;;;;;;;;;;35.76;22.70;99635.19;5013495;28;850;-62
2021/08/08 12:19:47;;;;;;;;;;;;;;;36.03;22.81;99631.00;5013351;28;1918;-63
2021/08/08 12:22:16;;;;;;;;;;;;;;;36.35;22.35;99627.28;5012947;28;861;-62
2021/08/08 12:24:44;;;;;;;;;;;;;;;36.37;22.82;99633.22;5013367;28;866;-63
2021/08/08 12:27:13;;;;;;;;;;;;;;;36.57;22.74;99634.97;5013537;28;841;-62
2021/08/08 12:29:41;;;;;;;;;;;;;;;36.65;22.30;99634.16;5013296;28;862;-63
2021/08/08 12:32:09;;;;;;;;;;;;;;;36.45;22.71;99636.81;5013201;28;807;-62
2021/08/08 12:34:37;;;;;;;;;;;;;;;36.36;21.41;99643.97;5011761;28;1326;-63
2021/08/08 12:37:07;;;;;;;;;;;;;;;36.55;22.16;99637.69;5013242;28;819;-63
2021/08/08 12:39:33;;;;;;;;;;;;;;;36.64;22.32;99638.38;5012860;28;1890;-63
2021/08/08 12:42:01;;;;;;;;;;;;;;;36.66;21.93;99641.41;5013301;28;838;-63
2021/08/08 12:44:32;;;;;;;;;;;;;;;36.56;22.27;99635.56;5013005;28;830;-63
2021/08/08 12:47:00;;;;;;;;;;;;;;;36.83;21.79;99652.97;5011638;28;700;-63
2021/08/08 12:49:34;;;;;;;;;;;;;;;36.97;22.57;99627.47;5012991;28;830;-62
2021/08/08 12:52:02;;;;;;;;;;;;;;;37.03;22.75;99647.38;5012856;28;818;-63
2021/08/08 12:54:28;;;;;;;;;;;;;;;36.98;23.17;99640.53;5012744;28;913;-62
2021/08/08 12:56:55;;;;;;;;;;;;;;;36.76;22.75;99648.78;5012746;28;849;-63
2021/08/08 12:59:21;;;;;;;;;;;;;;;36.79;23.37;99649.75;5012581;28;1885;-62
2021/08/08 13:01:48;;;;;;;;;;;;;;;36.77;22.87;99647.44;5012673;28;829;-63
2021/08/08 13:04:15;;;;;;;;;;;;;;;36.65;22.58;99652.19;5012795;28;823;-63
2021/08/08 13:06:41;;;;;;;;;;;;;;;36.58;23.01;99653.00;5012582;28;945;-63
2021/08/08 13:09:08;;;;;;;;;;;;;;;36.26;22.88;99650.97;5012783;28;857;-63
2021/08/08 13:11:34;;;;;;;;;;;;;;;36.25;23.91;99653.06;5013245;28;830;-62
2021/08/08 13:14:01;;;;;;;;;;;;;;;36.18;23.95;99651.03;5013101;28;928;-63